createdAt,value
2022-09-24T00:00:42.204Z,999.02
2022-09-24T00:01:42.239Z,999.02
2022-09-24T00:02:42.225Z,999.03
2022-09-24T00:03:42.185Z,999.02
2022-09-24T00:04:42.153Z,999.03
2022-09-24T00:05:42.134Z,999.01
2022-09-24T00:06:42.125Z,998.97
2022-09-24T00:07:42.116Z,998.98
2022-09-24T00:08:42.128Z,998.96
2022-09-24T00:09:42.086Z,998.97
2022-09-24T00:10:42.065Z,999.00
2022-09-24T00:11:42.065Z,998.95
2022-09-24T00:12:42.042Z,998.96
2022-09-24T00:13:42.038Z,998.98
2022-09-24T00:14:42.015Z,998.97
2022-09-24T00:15:42.037Z,999.00
2022-09-24T00:16:42.025Z,998.95
2022-09-24T00:17:41.976Z,998.95
2022-09-24T00:18:41.974Z,999.02
2022-09-24T00:19:41.936Z,998.95
2022-09-24T00:20:41.933Z,998.95
2022-09-24T00:21:41.925Z,998.92
2022-09-24T00:22:41.905Z,998.92
2022-09-24T00:23:41.915Z,998.92
2022-09-24T00:24:41.877Z,998.92
2022-09-24T00:25:41.865Z,998.95
2022-09-24T00:26:41.857Z,998.95
2022-09-24T00:27:41.846Z,999.00
2022-09-24T00:28:41.825Z,998.98
2022-09-24T00:29:41.815Z,998.98
2022-09-24T00:30:41.794Z,998.98
2022-09-24T00:31:41.872Z,998.97
2022-09-24T00:32:41.765Z,998.98
2022-09-24T00:33:41.778Z,998.91
2022-09-24T00:34:41.745Z,998.91
2022-09-24T00:35:41.735Z,998.86
2022-09-24T00:36:41.713Z,998.88
2022-09-24T00:37:41.705Z,998.87
2022-09-24T00:38:41.714Z,998.87
2022-09-24T00:39:41.680Z,998.89
2022-09-24T00:40:41.706Z,998.86
2022-09-24T00:41:41.646Z,998.83
2022-09-24T00:42:41.636Z,998.84
2022-09-24T00:43:41.646Z,998.84
2022-09-24T00:44:41.657Z,998.84
2022-09-24T00:45:41.598Z,998.83
2022-09-24T00:46:41.653Z,998.83
2022-09-24T00:47:41.576Z,998.87
2022-09-24T00:48:41.567Z,998.80
2022-09-24T00:49:41.547Z,998.83
2022-09-24T00:50:41.524Z,998.78
2022-09-24T00:51:41.515Z,998.79
2022-09-24T00:52:41.496Z,998.77
2022-09-24T00:53:41.508Z,998.79
2022-09-24T00:54:41.474Z,998.79
2022-09-24T00:55:41.488Z,998.78
2022-09-24T00:56:41.447Z,998.79
2022-09-24T00:57:41.436Z,998.80
2022-09-24T00:58:41.436Z,998.82
2022-09-24T00:59:41.450Z,998.79
2022-09-24T01:00:41.428Z,998.75
2022-09-24T01:01:41.451Z,998.78
2022-09-24T01:02:41.357Z,998.75
2022-09-24T01:03:41.348Z,998.75
2022-09-24T01:04:41.356Z,998.76
2022-09-24T01:05:41.326Z,998.69
2022-09-24T01:06:41.306Z,998.68
2022-09-24T01:07:41.298Z,998.68
2022-09-24T01:08:41.279Z,998.65
2022-09-24T01:09:41.287Z,998.67
2022-09-24T01:10:41.258Z,998.62
2022-09-24T01:11:41.247Z,998.64
2022-09-24T01:12:41.224Z,998.59
2022-09-24T01:13:43.390Z,998.66
2022-09-24T01:14:41.226Z,998.65
2022-09-24T01:15:41.197Z,998.65
2022-09-24T01:16:41.236Z,998.60
2022-09-24T01:17:41.167Z,998.60
2022-09-24T01:18:41.139Z,998.57
2022-09-24T01:19:41.148Z,998.57
2022-09-24T01:20:41.119Z,998.58
2022-09-24T01:21:41.107Z,998.56
2022-09-24T01:22:41.079Z,998.57
2022-09-24T01:23:43.808Z,998.56
2022-09-24T01:24:42.078Z,998.57
2022-09-24T01:25:41.061Z,998.53
2022-09-24T01:26:41.038Z,998.55
2022-09-24T01:27:41.029Z,998.55
2022-09-24T01:28:41.006Z,998.49
2022-09-24T01:29:41.021Z,998.50
2022-09-24T01:30:42.397Z,998.49
2022-09-24T01:31:41.037Z,998.49
2022-09-24T01:32:40.958Z,998.48
2022-09-24T01:33:40.946Z,998.53
2022-09-24T01:34:40.958Z,998.51
2022-09-24T01:35:40.909Z,998.49
2022-09-24T01:36:40.910Z,998.47
2022-09-24T01:37:40.895Z,998.47
2022-09-24T01:38:40.880Z,998.51
2022-09-24T01:39:40.886Z,998.50
2022-09-24T01:40:40.881Z,998.46
2022-09-24T01:41:40.848Z,998.47
2022-09-24T01:42:40.830Z,998.44
2022-09-24T01:43:40.818Z,998.46
2022-09-24T01:44:40.819Z,998.44
2022-09-24T01:45:40.801Z,998.40
2022-09-24T01:46:40.850Z,998.38
2022-09-24T01:47:40.771Z,998.39
2022-09-24T01:48:40.758Z,998.32
2022-09-24T01:49:40.755Z,998.33
2022-09-24T01:50:40.728Z,998.32
2022-09-24T01:51:40.709Z,998.32
2022-09-24T01:52:40.699Z,998.32
2022-09-24T01:53:40.686Z,998.31
2022-09-24T01:54:40.689Z,998.31
2022-09-24T01:55:40.656Z,998.28
2022-09-24T01:56:40.668Z,998.26
2022-09-24T01:57:40.639Z,998.22
2022-09-24T01:58:40.618Z,998.24
2022-09-24T01:59:40.617Z,998.24
2022-09-24T02:00:40.658Z,998.22
2022-09-24T02:01:40.610Z,998.26
2022-09-24T02:02:40.571Z,998.24
2022-09-24T02:03:40.540Z,998.23
2022-09-24T02:04:40.559Z,998.21
2022-09-24T02:05:40.529Z,998.23
2022-09-24T02:06:40.501Z,998.22
2022-09-24T02:07:40.499Z,998.22
2022-09-24T02:08:40.490Z,998.16
2022-09-24T02:09:40.499Z,998.18
2022-09-24T02:10:40.457Z,998.21
2022-09-24T02:11:40.448Z,998.14
2022-09-24T02:12:40.436Z,998.13
2022-09-24T02:13:40.419Z,998.14
2022-09-24T02:14:40.420Z,998.13
2022-09-24T02:15:40.490Z,998.09
2022-09-24T02:16:40.410Z,998.11
2022-09-24T02:17:40.369Z,998.11
2022-09-24T02:18:40.341Z,998.09
2022-09-24T02:19:40.369Z,998.08
2022-09-24T02:20:40.332Z,998.09
2022-09-24T02:21:40.318Z,998.06
2022-09-24T02:22:40.298Z,998.06
2022-09-24T02:23:40.290Z,998.06
2022-09-24T02:24:40.298Z,998.07
2022-09-24T02:25:40.260Z,998.08
2022-09-24T02:26:40.249Z,998.06
2022-09-24T02:27:40.241Z,998.06
2022-09-24T02:28:40.216Z,998.02
2022-09-24T02:29:40.245Z,997.98
2022-09-24T02:30:40.221Z,997.96
2022-09-24T02:31:40.251Z,997.95
2022-09-24T02:32:40.170Z,997.93
2022-09-24T02:33:40.160Z,997.95
2022-09-24T02:34:40.163Z,997.94
2022-09-24T02:35:40.122Z,997.92
2022-09-24T02:36:40.110Z,997.93
2022-09-24T02:37:40.119Z,997.93
2022-09-24T02:38:40.099Z,997.95
2022-09-24T02:39:40.102Z,997.97
2022-09-24T02:40:40.160Z,997.96
2022-09-24T02:41:40.118Z,997.93
2022-09-24T02:42:40.050Z,997.95
2022-09-24T02:43:40.020Z,997.95
2022-09-24T02:44:40.027Z,997.99
2022-09-24T02:45:40.002Z,997.98
2022-09-24T02:46:40.020Z,998.01
2022-09-24T02:47:39.969Z,998.06
2022-09-24T02:48:39.951Z,998.01
2022-09-24T02:49:39.961Z,997.99
2022-09-24T02:50:39.929Z,998.00
2022-09-24T02:51:39.923Z,997.96
2022-09-24T02:52:39.910Z,997.97
2022-09-24T02:53:39.893Z,997.94
2022-09-24T02:54:39.880Z,997.94
2022-09-24T02:55:39.870Z,997.92
2022-09-24T02:56:39.854Z,997.91
2022-09-24T02:57:39.840Z,997.91
2022-09-24T02:58:39.838Z,997.97
2022-09-24T02:59:39.834Z,998.00
2022-09-24T03:00:39.798Z,998.02
2022-09-24T03:01:39.933Z,998.03
2022-09-24T03:02:39.948Z,998.03
2022-09-24T03:03:39.761Z,998.07
2022-09-24T03:04:39.738Z,998.06
2022-09-24T03:05:39.758Z,998.03
2022-09-24T03:06:39.714Z,997.99
2022-09-24T03:07:39.709Z,998.02
2022-09-24T03:08:39.681Z,998.03
2022-09-24T03:09:39.679Z,998.04
2022-09-24T03:10:39.701Z,998.06
2022-09-24T03:11:39.660Z,998.03
2022-09-24T03:12:39.638Z,998.08
2022-09-24T03:16:01.131Z,998.12
2022-09-24T03:17:01.031Z,998.12
2022-09-24T03:18:01.026Z,998.15
2022-09-24T03:19:01.017Z,998.16
2022-09-24T03:20:01.013Z,998.16
2022-09-24T03:21:01.007Z,998.13
2022-09-24T03:22:00.978Z,998.11
2022-09-24T03:23:00.967Z,998.13
2022-09-24T03:24:01.079Z,998.09
2022-09-24T03:25:00.938Z,998.10
2022-09-24T03:26:00.937Z,998.09
2022-09-24T03:27:00.928Z,998.11
2022-09-24T03:28:00.898Z,998.12
2022-09-24T03:29:00.887Z,998.13
2022-09-24T03:30:00.890Z,998.15
2022-09-24T03:31:01.068Z,998.10
2022-09-24T03:32:00.859Z,998.11
2022-09-24T03:33:00.857Z,998.09
2022-09-24T03:34:00.948Z,998.10
2022-09-24T03:35:00.831Z,998.11
2022-09-24T03:36:00.830Z,998.11
2022-09-24T03:37:00.802Z,998.15
2022-09-24T03:38:00.785Z,998.15
2022-09-24T03:39:00.770Z,998.13
2022-09-24T03:40:00.759Z,998.11
2022-09-24T03:41:00.766Z,998.14
2022-09-24T03:42:00.732Z,998.13
2022-09-24T03:43:00.719Z,998.13
2022-09-24T03:44:00.711Z,998.10
2022-09-24T03:45:00.700Z,998.11
2022-09-24T03:46:00.810Z,998.06
2022-09-24T03:47:00.672Z,998.07
2022-09-24T03:48:00.653Z,998.04
2022-09-24T03:49:00.757Z,998.03
2022-09-24T03:50:00.641Z,998.03
2022-09-24T03:51:00.636Z,998.06
2022-09-24T03:52:00.601Z,998.05
2022-09-24T03:53:00.593Z,998.06
2022-09-24T03:54:00.582Z,998.03
2022-09-24T03:55:00.570Z,998.04
2022-09-24T03:56:00.570Z,998.01
2022-09-24T03:57:00.541Z,998.01
2022-09-24T03:58:00.520Z,998.03
2022-09-24T03:59:00.511Z,998.02
2022-09-24T04:00:00.501Z,998.01
2022-09-24T04:01:00.501Z,997.96
2022-09-24T04:02:00.527Z,997.92
2022-09-24T04:03:00.534Z,997.92
2022-09-24T04:04:00.462Z,997.94
2022-09-24T04:05:00.451Z,997.88
2022-09-24T04:06:00.430Z,997.90
2022-09-24T04:07:00.415Z,997.84
2022-09-24T04:08:00.392Z,997.85
2022-09-24T04:09:00.387Z,997.81
2022-09-24T04:10:00.374Z,997.78
2022-09-24T04:11:00.377Z,997.80
2022-09-24T04:12:00.343Z,997.72
2022-09-24T04:13:00.343Z,997.76
2022-09-24T04:14:00.325Z,997.72
2022-09-24T04:15:00.319Z,997.75
2022-09-24T04:16:00.388Z,997.71
2022-09-24T04:17:00.283Z,997.76
2022-09-24T04:18:00.261Z,997.76
2022-09-24T04:19:00.268Z,997.76
2022-09-24T04:20:00.243Z,997.78
2022-09-24T04:21:00.241Z,997.80
2022-09-24T04:22:00.217Z,997.76
2022-09-24T04:23:00.202Z,997.81
2022-09-24T04:24:00.191Z,997.82
2022-09-24T04:25:00.181Z,997.84
2022-09-24T04:26:00.172Z,997.85
2022-09-24T04:27:00.141Z,997.86
2022-09-24T04:28:00.140Z,997.87
2022-09-24T04:29:00.130Z,997.88
2022-09-24T04:30:00.122Z,997.88
2022-09-24T04:31:00.217Z,997.90
2022-09-24T04:32:00.103Z,997.89
2022-09-24T04:33:00.072Z,997.88
2022-09-24T04:34:00.065Z,997.89
2022-09-24T04:35:04.166Z,997.89
2022-09-24T04:36:01.046Z,997.89
2022-09-24T04:37:00.014Z,997.89
2022-09-24T04:37:59.995Z,997.90
2022-09-24T04:38:59.992Z,997.91
2022-09-24T04:39:59.982Z,997.86
2022-09-24T04:40:59.997Z,997.81
2022-09-24T04:41:59.951Z,997.80
2022-09-24T04:42:59.941Z,997.76
2022-09-24T04:43:59.922Z,997.72
2022-09-24T04:44:59.915Z,997.71
2022-09-24T04:45:59.927Z,997.68
2022-09-24T04:46:59.977Z,997.67
2022-09-24T04:47:59.869Z,997.65
2022-09-24T04:48:59.863Z,997.65
2022-09-24T04:49:59.844Z,997.64
2022-09-24T04:50:59.853Z,997.64
2022-09-24T04:51:59.822Z,997.66
2022-09-24T04:52:59.813Z,997.65
2022-09-24T04:53:59.802Z,997.61
2022-09-24T04:54:59.793Z,997.65
2022-09-24T04:55:59.788Z,997.65
2022-09-24T04:56:59.752Z,997.67
2022-09-24T04:57:59.762Z,997.66
2022-09-24T04:58:59.732Z,997.70
2022-09-24T04:59:59.715Z,997.67
2022-09-24T05:00:59.727Z,997.65
2022-09-24T05:01:59.862Z,997.67
2022-09-24T05:02:59.732Z,997.64
2022-09-24T05:03:59.666Z,997.66
2022-09-24T05:04:59.656Z,997.63
2022-09-24T05:05:59.653Z,997.64
2022-09-24T05:06:59.624Z,997.65
2022-09-24T05:07:59.615Z,997.66
2022-09-24T05:08:59.614Z,997.64
2022-09-24T05:09:59.582Z,997.63
2022-09-24T05:10:59.592Z,997.62
2022-09-24T05:11:59.561Z,997.65
2022-09-24T05:12:59.551Z,997.58
2022-09-24T05:13:59.532Z,997.61
2022-09-24T05:14:59.522Z,997.64
2022-09-24T05:15:59.595Z,997.66
2022-09-24T05:16:59.494Z,997.64
2022-09-24T05:17:59.481Z,997.66
2022-09-24T05:18:59.471Z,997.66
2022-09-24T05:19:59.510Z,997.69
2022-09-24T05:20:59.463Z,997.67
2022-09-24T05:21:59.431Z,997.72
2022-09-24T05:22:59.410Z,997.71
2022-09-24T05:23:59.390Z,997.69
2022-09-24T05:24:59.392Z,997.67
2022-09-24T05:25:59.381Z,997.68
2022-09-24T05:26:59.384Z,997.72
2022-09-24T05:27:59.354Z,997.73
2022-09-24T05:28:59.342Z,997.74
2022-09-24T05:29:59.323Z,997.73
2022-09-24T05:30:59.380Z,997.73
2022-09-24T05:31:59.309Z,997.70
2022-09-24T05:32:59.292Z,997.72
2022-09-24T05:33:59.262Z,997.71
2022-09-24T05:34:59.263Z,997.72
2022-09-24T05:35:59.253Z,997.72
2022-09-24T05:36:59.252Z,997.71
2022-09-24T05:37:59.222Z,997.74
2022-09-24T05:38:59.213Z,997.79
2022-09-24T05:39:59.203Z,997.80
2022-09-24T05:40:59.242Z,997.84
2022-09-24T05:41:59.178Z,997.81
2022-09-24T05:42:59.153Z,997.83
2022-09-24T05:43:59.140Z,997.83
2022-09-24T05:44:59.132Z,997.84
2022-09-24T05:45:59.102Z,997.81
2022-09-24T05:46:59.157Z,997.82
2022-09-24T05:47:59.090Z,997.80
2022-09-24T05:48:59.074Z,997.77
2022-09-24T05:49:59.052Z,997.76
2022-09-24T05:50:59.142Z,997.78
2022-09-24T05:51:59.051Z,997.77
2022-09-24T05:52:59.010Z,997.77
2022-09-24T05:53:59.013Z,997.85
2022-09-24T05:54:59.003Z,997.86
2022-09-24T05:55:58.986Z,997.93
2022-09-24T05:56:58.991Z,997.92
2022-09-24T05:57:58.963Z,997.92
2022-09-24T05:58:58.940Z,997.94
2022-09-24T05:59:58.934Z,997.92
2022-09-24T06:00:58.925Z,997.91
2022-09-24T06:01:58.954Z,997.93
2022-09-24T06:02:58.952Z,997.90
2022-09-24T06:03:58.874Z,997.94
2022-09-24T06:04:58.877Z,997.95
2022-09-24T06:05:58.854Z,997.94
2022-09-24T06:06:58.853Z,997.96
2022-09-24T06:07:58.833Z,997.97
2022-09-24T06:08:58.813Z,997.98
2022-09-24T06:09:58.816Z,997.97
2022-09-24T06:10:58.783Z,997.93
2022-09-24T06:11:58.793Z,997.92
2022-09-24T06:12:58.770Z,997.91
2022-09-24T06:13:58.762Z,997.98
2022-09-24T06:14:58.733Z,998.01
2022-09-24T06:15:58.750Z,998.00
2022-09-24T06:16:58.724Z,998.02
2022-09-24T06:17:58.702Z,998.04
2022-09-24T06:18:58.680Z,998.06
2022-09-24T06:19:58.663Z,998.03
2022-09-24T06:20:58.653Z,998.02
2022-09-24T06:21:58.655Z,998.04
2022-09-24T06:22:58.623Z,998.05
2022-09-24T06:23:58.614Z,998.02
2022-09-24T06:24:58.592Z,998.07
2022-09-24T06:25:58.598Z,998.09
2022-09-24T06:26:58.581Z,998.08
2022-09-24T06:27:58.563Z,998.12
2022-09-24T06:29:03.767Z,998.10
2022-09-24T06:29:59.526Z,998.10
2022-09-24T06:30:58.598Z,998.09
2022-09-24T06:31:58.533Z,998.07
2022-09-24T06:32:58.493Z,998.05
2022-09-24T06:33:58.492Z,998.07
2022-09-24T06:34:59.365Z,998.06
2022-09-24T06:35:58.460Z,998.06
2022-09-24T06:36:58.452Z,998.03
2022-09-24T06:37:58.421Z,998.06
2022-09-24T06:38:58.413Z,998.07
2022-09-24T06:39:58.407Z,998.09
2022-09-24T06:40:58.448Z,998.09
2022-09-24T06:41:58.395Z,998.06
2022-09-24T06:42:58.365Z,998.09
2022-09-24T06:43:58.369Z,998.09
2022-09-24T06:44:58.333Z,998.06
2022-09-24T06:45:58.325Z,998.11
2022-09-24T06:46:58.387Z,998.06
2022-09-24T06:47:58.298Z,998.03
2022-09-24T06:48:58.272Z,998.08
2022-09-24T06:49:58.262Z,998.06
2022-09-24T06:50:58.243Z,998.02
2022-09-24T06:51:58.255Z,998.09
2022-09-24T06:52:58.224Z,998.07
2022-09-24T06:53:58.213Z,998.06
2022-09-24T06:54:58.194Z,998.08
2022-09-24T06:55:58.192Z,998.07
2022-09-24T06:56:58.184Z,998.11
2022-09-24T06:57:58.155Z,998.10
2022-09-24T06:58:58.145Z,998.11
2022-09-24T06:59:58.142Z,998.12
2022-09-24T07:00:58.179Z,998.10
2022-09-24T07:01:58.148Z,998.10
2022-09-24T07:02:58.091Z,998.05
2022-09-24T07:03:58.084Z,998.05
2022-09-24T07:04:58.064Z,998.04
2022-09-24T07:05:58.063Z,998.03
2022-09-24T07:06:58.054Z,998.02
2022-09-24T07:07:58.025Z,998.02
2022-09-24T07:08:58.003Z,997.99
2022-09-24T07:09:57.993Z,997.98
2022-09-24T07:10:57.983Z,997.98
2022-09-24T07:11:58.002Z,997.95
2022-09-24T07:12:57.952Z,997.99
2022-09-24T07:13:57.951Z,997.98
2022-09-24T07:14:57.915Z,998.00
2022-09-24T07:15:57.984Z,998.05
2022-09-24T07:16:57.914Z,998.09
2022-09-24T07:17:57.895Z,998.11
2022-09-24T07:18:57.882Z,998.11
2022-09-24T07:19:57.856Z,998.18
2022-09-24T07:20:57.852Z,998.17
2022-09-24T07:21:57.855Z,998.16
2022-09-24T07:22:57.827Z,998.17
2022-09-24T07:23:58.658Z,998.16
2022-09-24T07:24:57.835Z,998.11
2022-09-24T07:25:57.799Z,998.12
2022-09-24T07:26:57.788Z,998.16
2022-09-24T07:27:57.763Z,998.12
2022-09-24T07:28:57.751Z,998.19
2022-09-24T07:29:57.725Z,998.17
2022-09-24T07:30:57.856Z,998.14
2022-09-24T07:31:57.703Z,998.16
2022-09-24T07:32:57.696Z,998.15
2022-09-24T07:33:57.677Z,998.18
2022-09-24T07:34:57.645Z,998.15
2022-09-24T07:35:57.647Z,998.13
2022-09-24T07:36:57.654Z,998.12
2022-09-24T07:37:57.624Z,998.11
2022-09-24T07:38:57.585Z,998.11
2022-09-24T07:39:57.596Z,998.10
2022-09-24T07:40:57.684Z,998.09
2022-09-24T07:41:57.563Z,998.12
2022-09-24T07:42:57.556Z,998.13
2022-09-24T07:43:57.544Z,998.12
2022-09-24T07:44:57.524Z,998.07
2022-09-24T07:45:57.516Z,998.07
2022-09-24T07:46:57.572Z,998.08
2022-09-24T07:47:57.533Z,998.11
2022-09-24T07:48:57.475Z,998.11
2022-09-24T07:49:57.477Z,998.10
2022-09-24T07:50:57.436Z,998.11
2022-09-24T07:51:57.445Z,998.13
2022-09-24T07:52:57.469Z,998.14
2022-09-24T07:53:57.407Z,998.15
2022-09-24T07:54:57.396Z,998.16
2022-09-24T07:55:57.387Z,998.19
2022-09-24T07:56:57.367Z,998.19
2022-09-24T07:57:57.390Z,998.20
2022-09-24T07:58:57.346Z,998.20
2022-09-24T07:59:57.336Z,998.20
2022-09-24T08:00:57.317Z,998.21
2022-09-24T08:01:57.355Z,998.22
2022-09-24T08:02:57.306Z,998.20
2022-09-24T08:03:57.338Z,998.17
2022-09-24T08:04:57.267Z,998.19
2022-09-24T08:05:57.259Z,998.20
2022-09-24T08:06:57.237Z,998.19
2022-09-24T08:07:57.246Z,998.21
2022-09-24T08:08:57.217Z,998.20
2022-09-24T08:09:57.197Z,998.23
2022-09-24T08:10:57.187Z,998.21
2022-09-24T08:11:57.178Z,998.25
2022-09-24T08:12:57.194Z,998.25
2022-09-24T08:13:57.136Z,998.25
2022-09-24T08:14:57.135Z,998.19
2022-09-24T08:15:57.198Z,998.22
2022-09-24T08:16:57.117Z,998.19
2022-09-24T08:17:57.108Z,998.19
2022-09-24T08:18:57.077Z,998.20
2022-09-24T08:19:57.240Z,998.20
2022-09-24T08:20:57.057Z,998.23
2022-09-24T08:21:57.039Z,998.18
2022-09-24T08:22:57.048Z,998.24
2022-09-24T08:23:57.017Z,998.27
2022-09-24T08:24:57.000Z,998.28
2022-09-24T08:25:57.003Z,998.26
2022-09-24T08:26:56.988Z,998.29
2022-09-24T08:27:56.957Z,998.28
2022-09-24T08:28:56.947Z,998.29
2022-09-24T08:29:56.929Z,998.24
2022-09-24T08:30:56.967Z,998.24
2022-09-24T08:31:56.927Z,998.25
2022-09-24T08:32:56.886Z,998.22
2022-09-24T08:33:56.918Z,998.19
2022-09-24T08:34:56.867Z,998.18
2022-09-24T08:35:56.878Z,998.14
2022-09-24T08:36:56.837Z,998.19
2022-09-24T08:37:56.847Z,998.15
2022-09-24T08:38:56.813Z,998.15
2022-09-24T08:39:56.808Z,998.10
2022-09-24T08:40:56.835Z,998.10
2022-09-24T08:41:56.778Z,998.12
2022-09-24T08:42:56.787Z,998.10
2022-09-24T08:43:56.748Z,998.08
2022-09-24T08:44:56.737Z,998.09
2022-09-24T08:45:56.799Z,998.07
2022-09-24T08:46:56.739Z,998.08
2022-09-24T08:47:56.718Z,998.07
2022-09-24T08:48:56.680Z,998.06
2022-09-24T08:49:56.676Z,998.09
2022-09-24T08:50:56.649Z,998.08
2022-09-24T08:51:56.638Z,998.08
2022-09-24T08:52:56.647Z,998.10
2022-09-24T08:53:56.620Z,998.12
2022-09-24T08:54:56.619Z,998.14
2022-09-24T08:55:56.598Z,998.11
2022-09-24T08:56:56.549Z,998.15
2022-09-24T08:57:56.589Z,998.15
2022-09-24T08:58:56.560Z,998.16
2022-09-24T08:59:56.539Z,998.17
2022-09-24T09:00:56.526Z,998.18
2022-09-24T09:01:56.600Z,998.18
2022-09-24T09:02:56.574Z,998.19
2022-09-24T09:03:56.491Z,998.21
2022-09-24T09:04:56.477Z,998.20
2022-09-24T09:05:56.474Z,998.22
2022-09-24T09:06:56.450Z,998.17
2022-09-24T09:07:56.460Z,998.14
2022-09-24T09:09:11.838Z,998.14
2022-09-24T09:09:57.408Z,998.16
2022-09-24T09:10:56.397Z,998.12
2022-09-24T09:11:56.392Z,998.07
2022-09-24T09:12:56.380Z,998.07
2022-09-24T09:13:56.348Z,998.04
2022-09-24T09:14:56.360Z,997.99
2022-09-24T09:15:56.392Z,997.95
2022-09-24T09:16:56.311Z,997.92
2022-09-24T09:17:56.322Z,997.91
2022-09-24T09:18:56.280Z,997.89
2022-09-24T09:19:56.278Z,997.87
2022-09-24T09:20:56.261Z,997.90
2022-09-24T09:21:56.251Z,997.90
2022-09-24T09:22:56.249Z,997.92
2022-09-24T09:23:56.227Z,997.91
2022-09-24T09:25:01.163Z,997.95
2022-09-24T09:25:57.201Z,997.97
2022-09-24T09:26:56.180Z,998.04
2022-09-24T09:27:56.190Z,998.04
2022-09-24T09:28:56.150Z,998.09
2022-09-24T09:29:56.212Z,998.04
2022-09-24T09:30:56.180Z,998.04
2022-09-24T09:31:56.776Z,998.02
2022-09-24T09:32:56.122Z,998.03
2022-09-24T09:33:56.099Z,998.02
2022-09-24T09:34:56.075Z,998.00
2022-09-24T09:35:56.082Z,998.00
2022-09-24T09:36:56.058Z,998.00
2022-09-24T09:37:56.060Z,997.98
2022-09-24T09:38:56.022Z,997.99
2022-09-24T09:39:56.020Z,997.98
2022-09-24T09:40:56.035Z,998.00
2022-09-24T09:41:55.994Z,998.03
2022-09-24T09:42:55.982Z,997.94
2022-09-24T09:43:55.972Z,997.96
2022-09-24T09:44:55.951Z,997.98
2022-09-24T09:45:55.933Z,997.95
2022-09-24T09:46:56.001Z,997.99
2022-09-24T09:47:55.930Z,997.98
2022-09-24T09:48:55.894Z,997.97
2022-09-24T09:49:55.873Z,997.98
2022-09-24T09:50:55.859Z,997.97
2022-09-24T09:51:55.853Z,997.96
2022-09-24T09:52:55.852Z,997.98
2022-09-24T09:53:55.824Z,997.93
2022-09-24T09:54:55.802Z,997.94
2022-09-24T09:55:55.792Z,997.92
2022-09-24T09:56:55.784Z,997.90
2022-09-24T09:57:55.790Z,997.86
2022-09-24T09:58:55.754Z,997.84
2022-09-24T09:59:55.743Z,997.87
2022-09-24T10:00:55.723Z,997.87
2022-09-24T10:01:55.935Z,997.84
2022-09-24T10:02:55.886Z,997.85
2022-09-24T10:03:55.703Z,997.83
2022-09-24T10:04:55.684Z,997.82
2022-09-24T10:05:55.655Z,997.84
2022-09-24T10:06:55.654Z,997.83
2022-09-24T10:07:55.653Z,997.81
2022-09-24T10:08:55.624Z,997.85
2022-09-24T10:09:55.613Z,997.85
2022-09-24T10:10:55.615Z,997.83
2022-09-24T10:11:55.584Z,997.80
2022-09-24T10:12:55.584Z,997.78
2022-09-24T10:13:55.553Z,997.77
2022-09-24T10:14:55.545Z,997.77
2022-09-24T10:15:55.617Z,997.78
2022-09-24T10:16:55.514Z,997.71
2022-09-24T10:17:55.529Z,997.70
2022-09-24T10:18:55.495Z,997.71
2022-09-24T10:19:55.475Z,997.69
2022-09-24T10:20:55.473Z,997.68
2022-09-24T10:21:55.445Z,997.71
2022-09-24T10:22:55.455Z,997.71
2022-09-24T10:23:55.424Z,997.67
2022-09-24T10:24:55.416Z,997.68
2022-09-24T10:25:55.397Z,997.61
2022-09-24T10:26:55.385Z,997.63
2022-09-24T10:27:55.385Z,997.63
2022-09-24T10:28:55.355Z,997.62
2022-09-24T10:29:55.346Z,997.55
2022-09-24T10:30:55.361Z,997.59
2022-09-24T10:31:55.316Z,997.56
2022-09-24T10:32:55.325Z,997.53
2022-09-24T10:33:55.294Z,997.50
2022-09-24T10:34:55.275Z,997.51
2022-09-24T10:35:55.265Z,997.50
2022-09-24T10:36:55.256Z,997.47
2022-09-24T10:37:55.247Z,997.46
2022-09-24T10:38:55.246Z,997.43
2022-09-24T10:39:55.241Z,997.40
2022-09-24T10:40:55.266Z,997.41
2022-09-24T10:41:55.186Z,997.37
2022-09-24T10:42:55.177Z,997.39
2022-09-24T10:43:55.176Z,997.36
2022-09-24T10:44:55.145Z,997.40
2022-09-24T10:45:55.134Z,997.38
2022-09-24T10:46:55.172Z,997.44
2022-09-24T10:47:55.117Z,997.45
2022-09-24T10:48:55.145Z,997.43
2022-09-24T10:49:55.078Z,997.43
2022-09-24T10:50:55.139Z,997.42
2022-09-24T10:51:55.046Z,997.40
2022-09-24T10:52:55.037Z,997.43
2022-09-24T10:53:55.037Z,997.42
2022-09-24T10:54:55.007Z,997.43
2022-09-24T10:55:55.004Z,997.41
2022-09-24T10:56:54.991Z,997.41
2022-09-24T10:57:54.978Z,997.39
2022-09-24T10:58:54.978Z,997.40
2022-09-24T10:59:54.939Z,997.40
2022-09-24T11:00:54.919Z,997.38
2022-09-24T11:01:54.953Z,997.36
2022-09-24T11:02:54.977Z,997.32
2022-09-24T11:03:54.887Z,997.38
2022-09-24T11:04:54.878Z,997.34
2022-09-24T11:05:54.869Z,997.36
2022-09-24T11:06:54.848Z,997.36
2022-09-24T11:07:54.838Z,997.34
2022-09-24T11:08:54.839Z,997.33
2022-09-24T11:09:54.808Z,997.32
2022-09-24T11:10:54.802Z,997.26
2022-09-24T11:11:54.789Z,997.30
2022-09-24T11:12:54.776Z,997.28
2022-09-24T11:13:54.770Z,997.25
2022-09-24T11:14:54.750Z,997.28
2022-09-24T11:15:54.782Z,997.30
2022-09-24T11:16:54.717Z,997.27
2022-09-24T11:17:54.711Z,997.28
2022-09-24T11:18:54.730Z,997.24
2022-09-24T11:19:54.679Z,997.26
2022-09-24T11:20:54.675Z,997.21
2022-09-24T11:21:54.652Z,997.22
2022-09-24T11:22:54.639Z,997.23
2022-09-24T11:23:54.630Z,997.24
2022-09-24T11:24:54.609Z,997.23
2022-09-24T11:25:54.599Z,997.22
2022-09-24T11:26:54.587Z,997.18
2022-09-24T11:27:54.578Z,997.14
2022-09-24T11:28:54.570Z,997.15
2022-09-24T11:29:54.552Z,997.16
2022-09-24T11:30:54.610Z,997.11
2022-09-24T11:31:54.521Z,997.08
2022-09-24T11:32:54.511Z,997.11
2022-09-24T11:33:54.511Z,997.08
2022-09-24T11:34:54.480Z,997.05
2022-09-24T11:35:54.461Z,997.07
2022-09-24T11:36:54.451Z,997.02
2022-09-24T11:37:54.431Z,997.06
2022-09-24T11:38:54.440Z,997.07
2022-09-24T11:39:54.403Z,997.05
2022-09-24T11:40:54.470Z,997.04
2022-09-24T11:41:54.380Z,997.04
2022-09-24T11:42:54.361Z,997.01
2022-09-24T11:43:54.372Z,996.99
2022-09-24T11:44:54.342Z,996.99
2022-09-24T11:45:54.321Z,996.98
2022-09-24T11:46:54.399Z,996.98
2022-09-24T11:47:54.332Z,997.00
2022-09-24T11:48:54.312Z,996.98
2022-09-24T11:49:54.345Z,997.00
2022-09-24T11:50:54.273Z,996.99
2022-09-24T11:51:54.243Z,996.97
2022-09-24T11:52:54.252Z,996.97
2022-09-24T11:53:54.233Z,996.96
2022-09-24T11:54:54.213Z,996.95
2022-09-24T11:55:54.208Z,996.95
2022-09-24T11:56:54.194Z,996.91
2022-09-24T11:57:54.174Z,996.96
2022-09-24T11:58:54.181Z,996.92
2022-09-24T11:59:54.144Z,996.96
2022-09-24T12:00:54.134Z,996.97
2022-09-24T12:01:54.147Z,996.96
2022-09-24T12:02:54.208Z,996.94
2022-09-24T12:03:54.104Z,996.97
2022-09-24T12:04:54.074Z,996.94
2022-09-24T12:05:54.064Z,996.92
2022-09-24T12:06:54.053Z,996.92
2022-09-24T12:07:54.066Z,996.93
2022-09-24T12:08:54.037Z,996.94
2022-09-24T12:09:54.013Z,996.90
2022-09-24T12:10:53.996Z,996.91
2022-09-24T12:11:53.972Z,996.90
2022-09-24T12:12:53.975Z,996.87
2022-09-24T12:13:54.026Z,996.89
2022-09-24T12:14:53.946Z,996.86
2022-09-24T12:15:53.969Z,996.83
2022-09-24T12:16:53.936Z,996.78
2022-09-24T12:17:53.907Z,996.73
2022-09-24T12:18:53.916Z,996.74
2022-09-24T12:19:53.879Z,996.74
2022-09-24T12:20:53.867Z,996.74
2022-09-24T12:21:53.861Z,996.71
2022-09-24T12:22:53.846Z,996.73
2022-09-24T12:24:11.503Z,996.70
2022-09-24T12:24:54.825Z,996.66
2022-09-24T12:25:53.807Z,996.66
2022-09-24T12:26:53.788Z,996.67
2022-09-24T12:27:53.777Z,996.67
2022-09-24T12:28:53.777Z,996.67
2022-09-24T12:29:53.746Z,996.67
2022-09-24T12:30:53.825Z,996.68